createdAt,value
2022-08-11T00:00:18.000Z,0
2022-08-11T00:01:34.000Z,0
2022-08-11T00:02:50.000Z,0
2022-08-11T00:04:06.000Z,0
2022-08-11T00:05:22.000Z,0
2022-08-11T00:06:38.000Z,0
2022-08-11T00:07:54.000Z,0
2022-08-11T00:09:10.000Z,0
2022-08-11T00:10:26.000Z,0
2022-08-11T00:11:43.000Z,0
2022-08-11T00:12:59.000Z,0
2022-08-11T00:15:31.000Z,0
2022-08-11T00:16:47.000Z,0
2022-08-11T00:18:03.000Z,0
2022-08-11T00:19:20.000Z,0
2022-08-11T00:20:36.000Z,0
2022-08-11T00:21:51.000Z,0
2022-08-11T00:23:07.000Z,0
2022-08-11T00:24:23.000Z,0
2022-08-11T00:25:40.000Z,0
2022-08-11T00:26:56.000Z,0
2022-08-11T00:28:12.000Z,0
2022-08-11T00:29:28.000Z,0
2022-08-11T00:30:44.000Z,0
2022-08-11T00:32:01.000Z,0
2022-08-11T00:33:17.000Z,0
2022-08-11T00:34:33.000Z,0
2022-08-11T00:35:49.000Z,0
2022-08-11T00:37:05.000Z,0
2022-08-11T00:38:21.000Z,0
2022-08-11T00:39:37.000Z,0
2022-08-11T00:40:53.000Z,0
2022-08-11T00:42:09.000Z,0
2022-08-11T00:43:25.000Z,0
2022-08-11T00:44:41.000Z,0
2022-08-11T00:45:58.000Z,0
2022-08-11T00:47:14.000Z,0
2022-08-11T00:48:30.000Z,0
2022-08-11T00:49:46.000Z,0
2022-08-11T00:51:02.000Z,0
2022-08-11T00:52:19.000Z,0
2022-08-11T00:53:35.000Z,0
2022-08-11T00:54:50.000Z,0
2022-08-11T00:56:06.000Z,0
2022-08-11T00:57:22.000Z,0
2022-08-11T00:58:39.000Z,0
2022-08-11T00:59:55.000Z,0
2022-08-11T01:01:11.000Z,0
2022-08-11T01:02:27.000Z,0
2022-08-11T01:03:43.000Z,0
2022-08-11T01:04:59.000Z,0
2022-08-11T01:06:16.000Z,0
2022-08-11T01:07:32.000Z,0
2022-08-11T01:08:48.000Z,0
2022-08-11T01:10:04.000Z,0
2022-08-11T01:11:19.000Z,0
2022-08-11T01:12:36.000Z,0
2022-08-11T01:13:52.000Z,0
2022-08-11T01:15:08.000Z,0
2022-08-11T01:16:24.000Z,0
2022-08-11T01:17:40.000Z,0
2022-08-11T01:18:57.000Z,0
2022-08-11T01:20:13.000Z,0
2022-08-11T01:21:29.000Z,0
2022-08-11T01:22:45.000Z,0
2022-08-11T01:24:01.000Z,0
2022-08-11T01:25:17.000Z,0
2022-08-11T01:26:34.000Z,0
2022-08-11T01:27:49.000Z,0
2022-08-11T01:29:05.000Z,0
2022-08-11T01:30:21.000Z,0
2022-08-11T01:31:37.000Z,0
2022-08-11T01:32:54.000Z,0
2022-08-11T01:34:10.000Z,0
2022-08-11T01:35:26.000Z,0
2022-08-11T01:36:42.000Z,0
2022-08-11T01:37:58.000Z,0
2022-08-11T01:39:15.000Z,0
2022-08-11T01:40:31.000Z,0
2022-08-11T01:41:47.000Z,0
2022-08-11T01:43:03.000Z,0
2022-08-11T01:44:18.000Z,0
2022-08-11T01:45:35.000Z,0
2022-08-11T01:46:51.000Z,0
2022-08-11T01:48:07.000Z,0
2022-08-11T01:49:23.000Z,0
2022-08-11T01:50:39.000Z,0
2022-08-11T01:51:55.000Z,0
2022-08-11T01:54:28.000Z,0
2022-08-11T01:55:44.000Z,0
2022-08-11T01:57:00.000Z,0
2022-08-11T01:58:16.000Z,0
2022-08-11T01:59:33.000Z,0
2022-08-11T02:00:48.000Z,0
2022-08-11T02:02:04.000Z,0
2022-08-11T02:03:20.000Z,0
2022-08-11T02:04:36.000Z,0
2022-08-11T02:05:53.000Z,0
2022-08-11T02:07:09.000Z,0
2022-08-11T02:08:25.000Z,0
2022-08-11T02:09:41.000Z,0
2022-08-11T02:10:57.000Z,0
2022-08-11T02:12:13.000Z,0
2022-08-11T02:13:30.000Z,0
2022-08-11T02:14:46.000Z,0
2022-08-11T02:16:02.000Z,0
2022-08-11T02:17:17.000Z,0
2022-08-11T02:18:33.000Z,0
2022-08-11T02:19:50.000Z,0
2022-08-11T02:21:06.000Z,0
2022-08-11T02:22:22.000Z,0
2022-08-11T02:23:38.000Z,0
2022-08-11T02:24:54.000Z,0
2022-08-11T02:26:11.000Z,0
2022-08-11T02:27:27.000Z,0
2022-08-11T02:28:43.000Z,0
2022-08-11T02:29:59.000Z,0
2022-08-11T02:31:15.000Z,0
2022-08-11T02:32:31.000Z,0
2022-08-11T02:33:47.000Z,0
2022-08-11T02:35:03.000Z,0
2022-08-11T02:36:19.000Z,0
2022-08-11T02:37:35.000Z,0
2022-08-11T02:38:51.000Z,0
2022-08-11T02:40:08.000Z,0
2022-08-11T02:41:24.000Z,0
2022-08-11T02:42:40.000Z,0
2022-08-11T02:43:56.000Z,0
2022-08-11T02:45:12.000Z,0
2022-08-11T02:46:29.000Z,0
2022-08-11T02:47:45.000Z,0
2022-08-11T02:49:01.000Z,0
2022-08-11T02:50:16.000Z,0
2022-08-11T02:51:32.000Z,0
2022-08-11T02:52:48.000Z,0
2022-08-11T02:54:05.000Z,0
2022-08-11T02:55:21.000Z,0
2022-08-11T02:56:37.000Z,0
2022-08-11T02:57:53.000Z,0
2022-08-11T02:59:09.000Z,0
2022-08-11T03:00:26.000Z,0
2022-08-11T03:01:42.000Z,0
2022-08-11T03:02:58.000Z,0
2022-08-11T03:04:14.000Z,0
2022-08-11T03:05:30.000Z,0
2022-08-11T03:06:46.000Z,0
2022-08-11T03:08:02.000Z,0
2022-08-11T03:09:18.000Z,0
2022-08-11T03:10:34.000Z,0
2022-08-11T03:11:50.000Z,0
2022-08-11T03:13:06.000Z,0
2022-08-11T03:14:22.000Z,0
2022-08-11T03:15:38.000Z,0
2022-08-11T03:16:54.000Z,0
2022-08-11T03:18:10.000Z,0
2022-08-11T03:19:26.000Z,0
2022-08-11T03:20:43.000Z,0
2022-08-11T03:21:59.000Z,0
2022-08-11T03:23:15.000Z,0
2022-08-11T03:24:31.000Z,0
2022-08-11T03:25:47.000Z,4
2022-08-11T03:27:04.000Z,0
2022-08-11T03:28:20.000Z,0
2022-08-11T03:29:36.000Z,4
2022-08-11T03:30:51.000Z,0
2022-08-11T03:32:08.068Z,4
2022-08-11T03:33:24.000Z,4
2022-08-11T03:34:40.000Z,8
2022-08-11T03:35:56.000Z,8
2022-08-11T03:37:12.000Z,8
2022-08-11T03:38:28.000Z,8
2022-08-11T03:39:44.000Z,12
2022-08-11T03:41:01.000Z,12
2022-08-11T03:42:17.000Z,12
2022-08-11T03:43:33.000Z,16
2022-08-11T03:44:49.000Z,24
2022-08-11T03:46:05.000Z,28
2022-08-11T03:47:21.000Z,32
2022-08-11T03:48:37.000Z,36
2022-08-11T03:49:53.000Z,44
2022-08-11T03:51:09.000Z,52
2022-08-11T03:52:25.000Z,64
2022-08-11T03:53:42.000Z,72
2022-08-11T03:54:58.000Z,80
2022-08-11T03:56:14.000Z,96
2022-08-11T03:57:30.000Z,108
2022-08-11T03:58:46.000Z,128
2022-08-11T04:00:02.000Z,144
2022-08-11T04:01:19.000Z,164
2022-08-11T04:02:35.000Z,184
2022-08-11T04:03:50.000Z,208
2022-08-11T04:05:06.000Z,232
2022-08-11T04:06:22.000Z,256
2022-08-11T04:07:39.000Z,284
2022-08-11T04:08:55.000Z,312
2022-08-11T04:10:11.000Z,344
2022-08-11T04:11:27.000Z,376
2022-08-11T04:12:43.000Z,412
2022-08-11T04:14:00.000Z,444
2022-08-11T04:15:16.000Z,484
2022-08-11T04:16:32.000Z,520
2022-08-11T04:17:48.000Z,560
2022-08-11T04:19:04.000Z,604
2022-08-11T04:20:20.000Z,644
2022-08-11T04:21:36.000Z,688
2022-08-11T04:22:52.000Z,732
2022-08-11T04:24:08.000Z,776
2022-08-11T04:25:24.000Z,824
2022-08-11T04:26:40.000Z,872
2022-08-11T04:27:57.000Z,920
2022-08-11T04:29:13.000Z,968
2022-08-11T04:30:29.000Z,1020
2022-08-11T04:31:45.000Z,1068
2022-08-11T04:33:01.000Z,1116
2022-08-11T04:34:18.000Z,1164
2022-08-11T04:35:34.000Z,1216
2022-08-11T04:36:49.000Z,1264
2022-08-11T04:38:05.000Z,1316
2022-08-11T04:39:21.000Z,1368
2022-08-11T04:40:38.000Z,1424
2022-08-11T04:41:54.000Z,1476
2022-08-11T04:43:10.000Z,1536
2022-08-11T04:44:26.000Z,1596
2022-08-11T04:45:42.000Z,1668
2022-08-11T04:46:58.000Z,1760
2022-08-11T04:48:15.000Z,2504
2022-08-11T04:49:31.000Z,3728
2022-08-11T04:50:47.000Z,4056
2022-08-11T04:52:03.000Z,3880
2022-08-11T04:53:18.000Z,3732
2022-08-11T04:54:35.000Z,3228
2022-08-11T04:55:51.000Z,2624
2022-08-11T04:57:07.000Z,3240
2022-08-11T04:58:23.000Z,4080
2022-08-11T04:59:39.000Z,4132
2022-08-11T05:00:56.000Z,4368
2022-08-11T05:02:12.000Z,4460
2022-08-11T05:03:28.000Z,4656
2022-08-11T05:04:44.000Z,5000
2022-08-11T05:06:00.000Z,5220
2022-08-11T05:07:16.000Z,5272
2022-08-11T05:08:33.000Z,5132
2022-08-11T05:09:48.000Z,4376
2022-08-11T05:11:04.000Z,3260
2022-08-11T05:12:20.000Z,3076
2022-08-11T05:13:36.000Z,3048
2022-08-11T05:14:53.000Z,3128
2022-08-11T05:16:09.000Z,4132
2022-08-11T05:17:25.000Z,5864
2022-08-11T05:18:41.000Z,6464
2022-08-11T05:19:57.000Z,6540
2022-08-11T05:21:14.000Z,6816
2022-08-11T05:22:30.000Z,7216
2022-08-11T05:23:46.000Z,7504
2022-08-11T05:25:02.000Z,7164
2022-08-11T05:26:17.000Z,6956
2022-08-11T05:27:33.000Z,7276
2022-08-11T05:28:50.000Z,7440
2022-08-11T05:30:06.000Z,7528
2022-08-11T05:31:22.000Z,6436
2022-08-11T05:32:38.000Z,4532
2022-08-11T05:33:54.000Z,4072
2022-08-11T05:35:11.000Z,5456
2022-08-11T05:36:27.000Z,7852
2022-08-11T05:37:43.000Z,8924
2022-08-11T05:38:59.000Z,8588
2022-08-11T05:40:15.000Z,8724
2022-08-11T05:41:32.000Z,9848
2022-08-11T05:42:47.000Z,9944
2022-08-11T05:44:03.000Z,9044
2022-08-11T05:45:19.000Z,8288
2022-08-11T05:46:35.000Z,6380
2022-08-11T05:47:51.000Z,4276
2022-08-11T05:49:08.000Z,3956
2022-08-11T05:50:24.000Z,3892
2022-08-11T05:51:40.000Z,3912
2022-08-11T05:52:56.000Z,3944
2022-08-11T05:54:12.000Z,4016
2022-08-11T05:55:29.000Z,4768
2022-08-11T05:56:45.000Z,8640
2022-08-11T05:58:01.000Z,11144
2022-08-11T05:59:16.000Z,11952
2022-08-11T06:00:32.000Z,12072
2022-08-11T06:01:49.000Z,11672
2022-08-11T06:03:05.000Z,11284
2022-08-11T06:04:21.000Z,11892
2022-08-11T06:05:37.000Z,12632
2022-08-11T06:06:53.000Z,13160
2022-08-11T06:08:10.000Z,12892
2022-08-11T06:09:26.000Z,9796
2022-08-11T06:10:42.000Z,5580
2022-08-11T06:11:58.000Z,5276
2022-08-11T06:13:14.000Z,9264
2022-08-11T06:14:30.000Z,12020
2022-08-11T06:15:46.000Z,12132
2022-08-11T06:17:02.000Z,12796
2022-08-11T06:18:18.000Z,12588
2022-08-11T06:19:34.000Z,12052
2022-08-11T06:20:50.000Z,12068
2022-08-11T06:22:07.000Z,10580
2022-08-11T06:23:23.503Z,6564
2022-08-11T06:24:39.000Z,4780
2022-08-11T06:25:55.000Z,4640
2022-08-11T06:27:11.000Z,4620
2022-08-11T06:28:28.000Z,4640
2022-08-11T06:29:44.000Z,4740
2022-08-11T06:31:00.000Z,6876
2022-08-11T06:32:15.000Z,13012
2022-08-11T06:33:31.000Z,16352
2022-08-11T06:34:47.000Z,18016
2022-08-11T06:36:04.000Z,18336
2022-08-11T06:37:20.000Z,18624
2022-08-11T06:38:36.000Z,20064
2022-08-11T06:39:52.000Z,21376
2022-08-11T06:41:08.000Z,22240
2022-08-11T06:42:25.000Z,21984
2022-08-11T06:43:41.000Z,22240
2022-08-11T06:44:57.000Z,22304
2022-08-11T06:46:13.000Z,13240
2022-08-11T06:47:29.000Z,5464
2022-08-11T06:48:45.000Z,7280
2022-08-11T06:50:01.000Z,18816
2022-08-11T06:51:17.000Z,27008
2022-08-11T06:52:33.000Z,28192
2022-08-11T06:53:49.000Z,27936
2022-08-11T06:55:05.000Z,29056
2022-08-11T06:56:22.000Z,27552
2022-08-11T06:57:38.000Z,15292
2022-08-11T06:58:54.000Z,5320
2022-08-11T07:00:10.000Z,4872
2022-08-11T07:01:26.000Z,4764
2022-08-11T07:02:43.000Z,4668
2022-08-11T07:03:59.000Z,4588
2022-08-11T07:05:14.000Z,4548
2022-08-11T07:06:30.000Z,4540
2022-08-11T07:07:46.000Z,4552
2022-08-11T07:09:03.000Z,4584
2022-08-11T07:10:19.000Z,4636
2022-08-11T07:11:35.000Z,4700
2022-08-11T07:12:51.000Z,4776
2022-08-11T07:14:07.000Z,4832
2022-08-11T07:15:24.000Z,4852
2022-08-11T07:16:40.000Z,4848
2022-08-11T07:17:56.000Z,4832
2022-08-11T07:19:12.000Z,4816
2022-08-11T07:20:28.000Z,4804
2022-08-11T07:21:43.000Z,4784
2022-08-11T07:23:00.000Z,4748
2022-08-11T07:24:16.000Z,4712
2022-08-11T07:25:32.000Z,4672
2022-08-11T07:26:48.000Z,4664
2022-08-11T07:28:04.000Z,4692
2022-08-11T07:29:20.000Z,4724
2022-08-11T07:30:36.000Z,4748
2022-08-11T07:31:52.000Z,4752
2022-08-11T07:33:08.000Z,4732
2022-08-11T07:34:24.000Z,4716
2022-08-11T07:35:41.000Z,4688
2022-08-11T07:36:57.000Z,4664
2022-08-11T07:38:13.000Z,4664
2022-08-11T07:39:29.000Z,4664
2022-08-11T07:40:45.000Z,4676
2022-08-11T07:42:01.000Z,4696
2022-08-11T07:43:18.000Z,4716
2022-08-11T07:44:34.000Z,4732
2022-08-11T07:45:49.000Z,4744
2022-08-11T07:47:05.000Z,4756
2022-08-11T07:48:21.000Z,4752
2022-08-11T07:49:38.000Z,4748
2022-08-11T07:50:54.000Z,4748
2022-08-11T07:52:10.000Z,4752
2022-08-11T07:53:26.000Z,4752
2022-08-11T07:54:42.000Z,4752
2022-08-11T07:55:59.000Z,4744
2022-08-11T07:57:15.000Z,4744
2022-08-11T07:58:31.000Z,4756
2022-08-11T07:59:47.000Z,4812
2022-08-11T08:01:03.000Z,7920
2022-08-11T08:02:19.000Z,7508
2022-08-11T08:03:35.000Z,4984
2022-08-11T08:04:51.000Z,4856
2022-08-11T08:06:07.000Z,4828
2022-08-11T08:07:23.000Z,4828
2022-08-11T08:08:39.000Z,4824
2022-08-11T08:09:56.000Z,4836
2022-08-11T08:11:12.000Z,4844
2022-08-11T08:12:28.000Z,4864
2022-08-11T08:13:44.000Z,4880
2022-08-11T08:15:00.000Z,4892
2022-08-11T08:16:17.000Z,4896
2022-08-11T08:17:33.000Z,4900
2022-08-11T08:18:48.000Z,4916
2022-08-11T08:20:04.000Z,4948
2022-08-11T08:21:20.000Z,4956
2022-08-11T08:22:37.000Z,4968
2022-08-11T08:23:53.000Z,4968
2022-08-11T08:25:09.000Z,4964
2022-08-11T08:26:25.000Z,5068
2022-08-11T08:27:41.000Z,4980
2022-08-11T08:28:57.000Z,4952
2022-08-11T08:30:14.000Z,4944
2022-08-11T08:31:30.000Z,4932
2022-08-11T08:32:46.000Z,4936
2022-08-11T08:34:02.000Z,4944
2022-08-11T08:35:17.000Z,4920
2022-08-11T08:36:34.000Z,4908
2022-08-11T08:37:50.000Z,4916
2022-08-11T08:39:06.000Z,4924
2022-08-11T08:40:22.000Z,4936
2022-08-11T08:41:38.000Z,4940
2022-08-11T08:42:55.000Z,4936
2022-08-11T08:44:11.000Z,4956
2022-08-11T08:45:27.000Z,4964
2022-08-11T08:46:43.000Z,4972
2022-08-11T08:47:59.000Z,4988
2022-08-11T08:49:15.000Z,4996
2022-08-11T08:50:32.000Z,4996
2022-08-11T08:51:47.000Z,4996
2022-08-11T08:53:03.000Z,4996
2022-08-11T08:54:19.000Z,5008
2022-08-11T08:55:35.000Z,5008
2022-08-11T08:56:52.000Z,4996
2022-08-11T08:58:08.000Z,4996
2022-08-11T08:59:24.000Z,4996
2022-08-11T09:00:40.000Z,4992
2022-08-11T09:01:57.085Z,4984
2022-08-11T09:03:13.000Z,4992
2022-08-11T09:04:29.000Z,5004
2022-08-11T09:05:45.000Z,5012
2022-08-11T09:07:01.000Z,5016
2022-08-11T09:08:16.000Z,5024
2022-08-11T09:09:33.000Z,5024
2022-08-11T09:10:49.000Z,5028
2022-08-11T09:12:05.000Z,5044
2022-08-11T09:13:21.000Z,5040
2022-08-11T09:14:37.000Z,5048
2022-08-11T09:15:53.000Z,5052
2022-08-11T09:17:10.000Z,5064
2022-08-11T09:18:26.000Z,5076
2022-08-11T09:19:42.000Z,5084
2022-08-11T09:20:58.000Z,5156
2022-08-11T09:22:14.000Z,5304
2022-08-11T09:23:31.000Z,5504
2022-08-11T09:24:46.000Z,5908
2022-08-11T09:26:02.000Z,22560
2022-08-11T09:27:18.000Z,56032
2022-08-11T09:28:34.000Z,52800
2022-08-11T09:29:51.000Z,18720
2022-08-11T09:31:07.000Z,7344
2022-08-11T09:32:23.000Z,8632
2022-08-11T09:33:39.000Z,10612
2022-08-11T09:34:55.000Z,9748
2022-08-11T09:36:11.000Z,5796
2022-08-11T09:37:28.000Z,5384
2022-08-11T09:38:44.000Z,5284
2022-08-11T09:40:00.000Z,5208
2022-08-11T09:41:15.000Z,5152
2022-08-11T09:42:31.000Z,5104
2022-08-11T09:43:48.000Z,5080
2022-08-11T09:45:04.000Z,5076
2022-08-11T09:46:20.000Z,5088
2022-08-11T09:47:36.000Z,5116
2022-08-11T09:48:52.000Z,5172
2022-08-11T09:50:09.000Z,5244
2022-08-11T09:51:25.000Z,5312
2022-08-11T09:52:41.000Z,5356
2022-08-11T09:53:57.000Z,5404
2022-08-11T09:55:13.000Z,5420
2022-08-11T09:56:30.000Z,5412
2022-08-11T09:57:45.000Z,5396
2022-08-11T09:59:01.000Z,5392
2022-08-11T10:00:17.000Z,5392
2022-08-11T10:01:33.000Z,5400
2022-08-11T10:02:49.000Z,5368
2022-08-11T10:04:06.000Z,5352
2022-08-11T10:05:22.000Z,5340
2022-08-11T10:06:38.000Z,5352
2022-08-11T10:07:54.000Z,5376
2022-08-11T10:09:10.000Z,5404
2022-08-11T10:10:27.000Z,5420
2022-08-11T10:11:43.000Z,5460
2022-08-11T10:12:59.000Z,5508
2022-08-11T10:14:14.000Z,5572
2022-08-11T10:15:30.000Z,5660
2022-08-11T10:16:47.000Z,5772
2022-08-11T10:18:03.000Z,5884
2022-08-11T10:19:19.000Z,6000
2022-08-11T10:20:35.000Z,6164
2022-08-11T10:21:51.000Z,6388
2022-08-11T10:23:08.000Z,6712
2022-08-11T10:24:24.000Z,7512
2022-08-11T10:25:40.000Z,33696
2022-08-11T10:26:56.000Z,71360
2022-08-11T10:28:12.000Z,67872
2022-08-11T10:29:28.000Z,43168
2022-08-11T10:30:44.000Z,15708
2022-08-11T10:32:00.000Z,13412
2022-08-11T10:33:16.000Z,19040
2022-08-11T10:34:32.000Z,28704
2022-08-11T10:35:48.000Z,29536
2022-08-11T10:37:05.000Z,22368
2022-08-11T10:38:21.000Z,17604
2022-08-11T10:39:37.000Z,23232
2022-08-11T10:40:53.000Z,29600
2022-08-11T10:42:09.000Z,47936
2022-08-11T10:43:26.000Z,15192
2022-08-11T10:44:42.000Z,38752
2022-08-11T10:45:58.000Z,27104
2022-08-11T10:47:13.000Z,28992
2022-08-11T10:48:29.000Z,21024
2022-08-11T10:49:46.000Z,40704
2022-08-11T10:51:02.000Z,64800
2022-08-11T10:52:18.000Z,23200
2022-08-11T10:53:34.000Z,29152
2022-08-11T10:54:50.000Z,53568
2022-08-11T10:56:06.000Z,40896
2022-08-11T10:57:23.000Z,40864
2022-08-11T10:58:39.000Z,26880
2022-08-11T10:59:55.000Z,33280
2022-08-11T11:01:11.000Z,34816
2022-08-11T11:02:27.000Z,74656
2022-08-11T11:03:43.000Z,57952
2022-08-11T11:04:59.524Z,27232
2022-08-11T11:06:15.000Z,31872
2022-08-11T11:07:31.000Z,38688
2022-08-11T11:08:47.000Z,65984
2022-08-11T11:10:04.000Z,43424
2022-08-11T11:11:20.000Z,51744
2022-08-11T11:12:36.000Z,55808
2022-08-11T11:13:52.000Z,33088
2022-08-11T11:15:08.000Z,34688
2022-08-11T11:16:25.000Z,50496
2022-08-11T11:17:41.000Z,30304
2022-08-11T11:18:57.000Z,61056
2022-08-11T11:20:12.000Z,76128
2022-08-11T11:21:28.000Z,64896
2022-08-11T11:22:44.000Z,31808
2022-08-11T11:24:01.000Z,56768
2022-08-11T11:25:17.000Z,43040
2022-08-11T11:26:33.000Z,20736
2022-08-11T11:27:49.000Z,21760
2022-08-11T11:29:05.000Z,9176
2022-08-11T11:30:22.000Z,8240
2022-08-11T11:31:38.000Z,7920
2022-08-11T11:32:54.000Z,7728
2022-08-11T11:34:10.000Z,7604
2022-08-11T11:35:26.000Z,7484
2022-08-11T11:36:42.000Z,7404
2022-08-11T11:37:58.000Z,7372
2022-08-11T11:39:14.000Z,7352
2022-08-11T11:40:30.000Z,7348
2022-08-11T11:41:46.000Z,7324
2022-08-11T11:43:03.000Z,7336
2022-08-11T11:44:18.000Z,7344
2022-08-11T11:45:34.000Z,7352
2022-08-11T11:46:50.000Z,7388
2022-08-11T11:48:06.000Z,7392
2022-08-11T11:49:23.000Z,7428
2022-08-11T11:50:39.000Z,7468
2022-08-11T11:51:55.000Z,7496
2022-08-11T11:53:11.000Z,7572
2022-08-11T11:54:27.000Z,7616
2022-08-11T11:55:43.000Z,7764
2022-08-11T11:57:00.000Z,7992
2022-08-11T11:58:16.000Z,8304
2022-08-11T11:59:32.000Z,8860
2022-08-11T12:00:47.000Z,10556
2022-08-11T12:02:03.000Z,47424
2022-08-11T12:03:20.000Z,87360
2022-08-11T12:04:36.000Z,90144
2022-08-11T12:05:52.000Z,72448
2022-08-11T12:07:08.000Z,44960
2022-08-11T12:08:24.000Z,76480
2022-08-11T12:09:41.000Z,80928
2022-08-11T12:10:57.000Z,68128
2022-08-11T12:12:13.000Z,31392
2022-08-11T12:13:29.000Z,33728
2022-08-11T12:14:45.000Z,63040
2022-08-11T12:16:02.000Z,85632
2022-08-11T12:17:18.000Z,83232
2022-08-11T12:18:33.000Z,78400
2022-08-11T12:19:49.000Z,40128
2022-08-11T12:21:05.000Z,55936
2022-08-11T12:22:22.000Z,79232
2022-08-11T12:23:38.000Z,80032
2022-08-11T12:24:54.000Z,77696
2022-08-11T12:26:10.000Z,73952
2022-08-11T12:27:26.000Z,56928
2022-08-11T12:28:42.000Z,26688
2022-08-11T12:29:59.000Z,37056
2022-08-11T12:31:15.000Z,37888
2022-08-11T12:32:31.000Z,40992
2022-08-11T12:33:47.000Z,46144
2022-08-11T12:35:03.000Z,26400
2022-08-11T12:36:19.000Z,48384
2022-08-11T12:37:35.000Z,79040
2022-08-11T12:38:51.000Z,79168
2022-08-11T12:40:07.000Z,76352
2022-08-11T12:41:23.000Z,78016
2022-08-11T12:42:40.000Z,77792
2022-08-11T12:43:56.000Z,73952
2022-08-11T12:45:12.000Z,35648
2022-08-11T12:46:28.000Z,55136
2022-08-11T12:47:44.000Z,77024
2022-08-11T12:49:01.000Z,76416
2022-08-11T12:50:17.000Z,74880
2022-08-11T12:51:33.000Z,75904
2022-08-11T12:52:48.000Z,67328
2022-08-11T12:54:04.000Z,45600
2022-08-11T12:55:21.000Z,30080
2022-08-11T12:56:37.000Z,26784
2022-08-11T12:57:53.000Z,39232
2022-08-11T12:59:09.000Z,47936
2022-08-11T13:00:25.000Z,58016
2022-08-11T13:01:41.000Z,65376
2022-08-11T13:02:58.000Z,69152
2022-08-11T13:04:14.000Z,62656
2022-08-11T13:05:30.000Z,29184
2022-08-11T13:06:46.000Z,47136
2022-08-11T13:08:02.000Z,70496
2022-08-11T13:09:18.000Z,72384
2022-08-11T13:10:34.000Z,72512
2022-08-11T13:11:50.000Z,73024
2022-08-11T13:13:06.000Z,71648
2022-08-11T13:14:22.000Z,70464
2022-08-11T13:15:39.000Z,70432
2022-08-11T13:16:55.000Z,66784
2022-08-11T13:18:11.000Z,35232
2022-08-11T13:19:27.000Z,41472
2022-08-11T13:20:43.000Z,66400
2022-08-11T13:22:00.000Z,66528
2022-08-11T13:23:16.000Z,65696
2022-08-11T13:24:32.000Z,66688
2022-08-11T13:25:47.000Z,65344
2022-08-11T13:27:03.000Z,65600
2022-08-11T13:28:20.000Z,65184
2022-08-11T13:29:36.000Z,48800
2022-08-11T13:30:52.000Z,29408
2022-08-11T13:32:08.000Z,20512
2022-08-11T13:33:24.000Z,27488
2022-08-11T13:34:40.000Z,37888
2022-08-11T13:35:57.000Z,44800
2022-08-11T13:37:13.000Z,51968
2022-08-11T13:38:29.000Z,58080
2022-08-11T13:39:45.000Z,63904
2022-08-11T13:41:01.000Z,64512
2022-08-11T13:42:17.000Z,66112
2022-08-11T13:43:33.000Z,65920
2022-08-11T13:44:49.000Z,42976
2022-08-11T13:46:05.000Z,31584
2022-08-11T13:47:21.000Z,62112
2022-08-11T13:48:38.000Z,68096
2022-08-11T13:49:54.000Z,67072
2022-08-11T13:51:10.000Z,65600
2022-08-11T13:52:26.000Z,64768
2022-08-11T13:53:42.000Z,63008
2022-08-11T13:54:59.000Z,60608
2022-08-11T13:56:15.000Z,57408
2022-08-11T13:57:31.000Z,56928
2022-08-11T13:58:46.000Z,59584
2022-08-11T14:00:02.000Z,60576
2022-08-11T14:01:19.000Z,44384
2022-08-11T14:02:35.000Z,29600
2022-08-11T14:03:51.000Z,52448
2022-08-11T14:05:07.000Z,58464
2022-08-11T14:06:23.000Z,55744
2022-08-11T14:07:40.000Z,55360
2022-08-11T14:08:56.000Z,55840
2022-08-11T14:10:12.000Z,55744
2022-08-11T14:11:28.000Z,56128
2022-08-11T14:12:44.000Z,57952
2022-08-11T14:14:00.000Z,59072
2022-08-11T14:15:16.000Z,60352
2022-08-11T14:16:32.000Z,59264
2022-08-11T14:17:48.000Z,57888
2022-08-11T14:19:04.000Z,40864
2022-08-11T14:20:20.000Z,21024
2022-08-11T14:21:37.000Z,39392
2022-08-11T14:22:53.000Z,46784
2022-08-11T14:24:09.000Z,42976
2022-08-11T14:25:25.000Z,41440
2022-08-11T14:26:41.000Z,39744
2022-08-11T14:27:58.000Z,36480
2022-08-11T14:29:14.000Z,33792
2022-08-11T14:30:30.000Z,31328
2022-08-11T14:31:45.000Z,28000
2022-08-11T14:33:01.000Z,25696
2022-08-11T14:34:18.000Z,23296
2022-08-11T14:35:34.000Z,20128
2022-08-11T14:36:50.000Z,16228
2022-08-11T14:38:06.000Z,21120
2022-08-11T14:39:22.000Z,32768
2022-08-11T14:40:39.000Z,41952
2022-08-11T14:41:55.000Z,44896
2022-08-11T14:43:11.000Z,43872
2022-08-11T14:44:27.000Z,42880
2022-08-11T14:45:43.000Z,43552
2022-08-11T14:46:59.000Z,43776
2022-08-11T14:48:15.000Z,42464
2022-08-11T14:49:31.000Z,41952
2022-08-11T14:50:47.000Z,41536
2022-08-11T14:52:03.000Z,43264
2022-08-11T14:53:19.000Z,42432
2022-08-11T14:54:36.000Z,40928
2022-08-11T14:55:52.000Z,38400
2022-08-11T14:57:08.000Z,24352
2022-08-11T14:58:24.000Z,22336
2022-08-11T14:59:40.000Z,36768
2022-08-11T15:00:57.000Z,40640
2022-08-11T15:02:13.000Z,42016
2022-08-11T15:03:29.000Z,42592
2022-08-11T15:04:44.000Z,41696
2022-08-11T15:06:00.000Z,40672
2022-08-11T15:07:17.000Z,40832
2022-08-11T15:08:33.000Z,42368
2022-08-11T15:09:49.000Z,43136
2022-08-11T15:11:05.000Z,43424
2022-08-11T15:12:21.000Z,43872
2022-08-11T15:13:38.000Z,42944
2022-08-11T15:14:54.000Z,41184
2022-08-11T15:16:10.000Z,40960
2022-08-11T15:17:26.000Z,34176
2022-08-11T15:18:42.000Z,19008
2022-08-11T15:19:58.000Z,23488
2022-08-11T15:21:14.000Z,40000
2022-08-11T15:22:30.000Z,42240
2022-08-11T15:23:46.000Z,43456
2022-08-11T15:25:02.000Z,42528
2022-08-11T15:26:18.000Z,40160
2022-08-11T15:27:35.000Z,41696
2022-08-11T15:28:51.000Z,35616
2022-08-11T15:30:07.000Z,35712
2022-08-11T15:31:23.000Z,41696
2022-08-11T15:32:39.000Z,43136
2022-08-11T15:33:56.000Z,41472
2022-08-11T15:35:12.000Z,40224
2022-08-11T15:36:28.000Z,41088
2022-08-11T15:37:43.000Z,42080
2022-08-11T15:38:59.000Z,37440
2022-08-11T15:40:16.000Z,19072
2022-08-11T15:41:32.000Z,16320
2022-08-11T15:42:48.000Z,32960
2022-08-11T15:44:04.000Z,38560
2022-08-11T15:45:20.000Z,37856
2022-08-11T15:46:37.000Z,38752
2022-08-11T15:47:53.000Z,38176
2022-08-11T15:49:09.000Z,36000
2022-08-11T15:50:25.000Z,36896
2022-08-11T15:51:41.000Z,37024
2022-08-11T15:52:57.000Z,37696
2022-08-11T15:54:13.000Z,37824
2022-08-11T15:55:29.000Z,38880
2022-08-11T15:56:45.000Z,37280
2022-08-11T15:58:01.000Z,36288
2022-08-11T15:59:16.000Z,34464
2022-08-11T16:00:33.000Z,30784
2022-08-11T16:01:49.000Z,17952
2022-08-11T16:03:05.000Z,10296
2022-08-11T16:04:21.000Z,17664
2022-08-11T16:05:37.000Z,28032
2022-08-11T16:06:54.000Z,28768
2022-08-11T16:08:10.000Z,28256
2022-08-11T16:09:26.000Z,25856
2022-08-11T16:10:42.000Z,24960
2022-08-11T16:11:58.000Z,25216
2022-08-11T16:13:15.000Z,21888
2022-08-11T16:14:31.000Z,11576
2022-08-11T16:15:46.000Z,7384
2022-08-11T16:17:02.000Z,7040
2022-08-11T16:18:18.000Z,6800
2022-08-11T16:19:35.000Z,6600
2022-08-11T16:20:51.000Z,6456
2022-08-11T16:22:07.000Z,6348
2022-08-11T16:23:23.000Z,6236
2022-08-11T16:24:39.000Z,6132
2022-08-11T16:25:56.000Z,6064
2022-08-11T16:27:12.000Z,5972
2022-08-11T16:28:28.000Z,5892
2022-08-11T16:29:44.000Z,5812
2022-08-11T16:31:00.000Z,5752
2022-08-11T16:32:15.000Z,5688
2022-08-11T16:33:32.000Z,5636
2022-08-11T16:34:48.000Z,5568
2022-08-11T16:36:04.000Z,5504
2022-08-11T16:37:20.000Z,5456
2022-08-11T16:38:36.000Z,5412
2022-08-11T16:39:53.000Z,5372
2022-08-11T16:41:09.000Z,5324
2022-08-11T16:42:25.000Z,5292
2022-08-11T16:43:41.000Z,5244
2022-08-11T16:44:57.000Z,5208
2022-08-11T16:46:14.000Z,5160
2022-08-11T16:47:30.000Z,5124
2022-08-11T16:48:45.000Z,5064
2022-08-11T16:50:01.000Z,5016
2022-08-11T16:51:17.000Z,4980
2022-08-11T16:52:34.000Z,4940
2022-08-11T16:53:50.000Z,4896
2022-08-11T16:55:06.000Z,4848
2022-08-11T16:56:22.000Z,4808
2022-08-11T16:57:38.000Z,4784
2022-08-11T16:58:55.000Z,4744
2022-08-11T17:00:11.000Z,4708
2022-08-11T17:01:27.000Z,4676
2022-08-11T17:02:43.000Z,4632
2022-08-11T17:03:59.000Z,4580
2022-08-11T17:05:14.000Z,4532
2022-08-11T17:06:31.000Z,4476